Time;durP1;ratioP1;P1;durP2;ratioP2;P2;SDS_P1;SDS_P2;PMS_P1;PMS_P2;Temp;Humidity;BMP_temperature;BMP_pressure;BME280_temperature;BME280_humidity;BME280_pressure;Samples;Min_cycle;Max_cycle;Signal;HPM_P1;HPM_P2
2021/07/18 04:02:22;;;;;;;10.23;6.37;;;17.30;99.90;;;;;;5141512;23;20501;-70
2021/07/18 04:04:48;;;;;;;11.17;6.00;;;17.30;99.90;;;;;;4993749;28;20462;-70
2021/07/18 04:07:15;;;;;;;11.90;6.40;;;17.40;99.90;;;;;;4994409;28;20482;-70
2021/07/18 04:09:42;;;;;;;6.37;5.83;;;17.40;99.90;;;;;;4994200;28;20497;-70
2021/07/18 04:12:09;;;;;;;10.60;6.43;;;17.50;99.90;;;;;;4976812;28;20487;-69
2021/07/18 04:14:35;;;;;;;8.20;5.90;;;17.50;99.90;;;;;;4963268;28;20467;-70
2021/07/18 04:17:02;;;;;;;9.73;7.03;;;17.50;99.90;;;;;;4974739;28;20584;-70
2021/07/18 04:19:30;;;;;;;9.20;6.47;;;17.50;99.90;;;;;;4974663;28;20468;-70
2021/07/18 04:21:57;;;;;;;13.27;7.17;;;17.60;99.90;;;;;;4973762;28;20952;-69
2021/07/18 04:24:23;;;;;;;8.60;6.23;;;17.60;99.90;;;;;;4974082;28;20823;-70
2021/07/18 04:26:50;;;;;;;8.27;7.57;;;17.70;99.90;;;;;;4973659;28;20468;-70
2021/07/18 04:29:17;;;;;;;9.60;7.50;;;17.80;99.90;;;;;;4974207;28;20460;-70
2021/07/18 04:31:43;;;;;;;7.50;6.77;;;17.80;99.90;;;;;;4973944;28;20488;-71
2021/07/18 04:34:10;;;;;;;7.40;6.10;;;17.90;99.90;;;;;;4973670;28;20464;-69
2021/07/18 04:36:38;;;;;;;7.63;6.90;;;18.00;99.90;;;;;;4974078;28;20480;-68
2021/07/18 04:39:05;;;;;;;6.10;5.53;;;18.10;99.90;;;;;;4974265;28;20530;-69
2021/07/18 04:41:32;;;;;;;7.47;6.33;;;18.20;99.90;;;;;;4974108;28;20476;-70
2021/07/18 04:43:58;;;;;;;6.00;5.43;;;18.20;99.90;;;;;;4973426;28;20467;-70
2021/07/18 04:46:25;;;;;;;7.87;5.50;;;18.20;99.90;;;;;;4973563;28;20460;-70
2021/07/18 04:48:52;;;;;;;7.27;6.00;;;18.20;99.90;;;;;;4973643;28;20464;-70
2021/07/18 04:51:18;;;;;;;6.57;5.90;;;18.20;99.90;;;;;;4973598;28;20969;-70
2021/07/18 04:53:46;;;;;;;8.73;6.20;;;18.30;99.90;;;;;;4973396;28;20522;-70
2021/07/18 04:56:13;;;;;;;5.63;4.90;;;18.40;99.90;;;;;;4973572;28;20860;-70
2021/07/18 04:58:40;;;;;;;6.43;5.90;;;18.40;99.90;;;;;;4972863;28;20464;-69
2021/07/18 05:01:07;;;;;;;8.73;5.57;;;18.50;99.90;;;;;;4960880;28;20853;-70
2021/07/18 05:03:34;;;;;;;6.20;5.70;;;18.40;99.90;;;;;;4974000;28;20460;-70
2021/07/18 05:06:05;;;;;;;8.83;5.97;;;18.50;99.90;;;;;;4973394;28;20522;-68
2021/07/18 05:08:32;;;;;;;8.87;6.30;;;18.50;99.90;;;;;;4973524;28;20519;-68
2021/07/18 05:11:00;;;;;;;7.37;6.33;;;18.50;99.90;;;;;;4972874;28;20475;-69
2021/07/18 05:13:26;;;;;;;7.03;6.33;;;18.50;99.90;;;;;;4973020;28;20483;-67
2021/07/18 05:15:53;;;;;;;8.47;7.50;;;18.50;99.90;;;;;;4973122;28;20515;-68
2021/07/18 05:18:20;;;;;;;8.60;8.00;;;18.50;99.90;;;;;;4973539;28;20463;-69
2021/07/18 05:20:46;;;;;;;7.50;6.80;;;18.50;99.90;;;;;;4972916;28;20542;-69
2021/07/18 05:23:14;;;;;;;9.43;8.43;;;18.50;99.90;;;;;;4973298;28;20459;-70
2021/07/18 05:25:40;;;;;;;11.90;10.90;;;18.60;99.90;;;;;;4972962;28;20460;-69
2021/07/18 05:28:08;;;;;;;11.43;9.67;;;18.60;99.90;;;;;;4972886;28;20526;-70
2021/07/18 05:30:35;;;;;;;13.10;10.90;;;18.60;99.90;;;;;;4973235;28;20483;-70
2021/07/18 05:33:02;;;;;;;16.70;13.13;;;18.60;99.90;;;;;;4971461;28;20460;-70
2021/07/18 05:35:29;;;;;;;15.10;13.70;;;18.60;99.90;;;;;;4973261;28;20834;-69
2021/07/18 05:37:55;;;;;;;12.80;11.60;;;18.70;99.90;;;;;;4972751;28;20483;-70
2021/07/18 05:40:22;;;;;;;14.97;12.80;;;18.80;99.90;;;;;;4972954;28;20460;-70
2021/07/18 05:42:49;;;;;;;13.97;12.73;;;18.80;99.90;;;;;;4972641;28;20470;-70
2021/07/18 05:45:17;;;;;;;13.20;12.20;;;19.00;99.90;;;;;;4972872;28;20468;-72
2021/07/18 05:47:44;;;;;;;11.60;10.80;;;19.00;99.90;;;;;;4973627;28;20464;-70
2021/07/18 05:50:12;;;;;;;13.00;11.80;;;19.10;99.90;;;;;;4967944;28;20963;-70
2021/07/18 05:52:39;;;;;;;13.57;12.50;;;19.10;99.90;;;;;;4972870;28;20507;-70
2021/07/18 05:55:07;;;;;;;11.97;10.97;;;19.10;99.90;;;;;;4973326;28;20468;-70
2021/07/18 05:57:34;;;;;;;13.07;11.87;;;19.20;99.90;;;;;;4971318;28;20484;-68
2021/07/18 06:00:02;;;;;;;13.63;12.27;;;19.30;99.90;;;;;;4971969;28;20479;-70
2021/07/18 06:02:30;;;;;;;12.90;11.80;;;19.40;99.90;;;;;;4953561;28;21028;-70
2021/07/18 06:04:56;;;;;;;12.53;11.50;;;19.50;99.90;;;;;;4958464;28;20464;-70
2021/07/18 06:07:23;;;;;;;12.10;11.10;;;19.60;99.90;;;;;;4965721;28;20519;-70
2021/07/18 06:09:50;;;;;;;12.50;11.40;;;19.70;99.90;;;;;;4985053;28;20483;-70
2021/07/18 06:12:16;;;;;;;10.83;10.13;;;19.70;99.90;;;;;;4972235;28;20484;-70
2021/07/18 06:14:43;;;;;;;10.50;9.77;;;19.80;99.90;;;;;;4972759;28;20849;-71
2021/07/18 06:17:11;;;;;;;10.70;9.53;;;20.10;99.90;;;;;;4973154;28;20487;-71
2021/07/18 06:19:39;;;;;;;8.97;8.30;;;20.70;99.90;;;;;;4972979;28;20821;-71
2021/07/18 06:22:06;;;;;;;7.97;7.37;;;21.30;99.90;;;;;;4971962;28;20495;-71
2021/07/18 06:24:33;;;;;;;7.80;7.17;;;21.90;99.90;;;;;;4973216;28;20471;-71
2021/07/18 06:27:00;;;;;;;7.47;6.87;;;22.40;99.90;;;;;;4972563;28;20525;-71
2021/07/18 06:29:26;;;;;;;6.30;5.97;;;22.90;99.90;;;;;;4972546;28;20467;-71
2021/07/18 06:31:53;;;;;;;7.00;6.50;;;23.10;99.90;;;;;;4971461;28;20531;-70
2021/07/18 06:34:20;;;;;;;6.20;5.90;;;23.20;99.90;;;;;;4971819;28;20467;-69
2021/07/18 06:36:48;;;;;;;6.00;5.73;;;23.40;99.90;;;;;;4970747;28;20507;-70
2021/07/18 06:39:15;;;;;;;6.27;6.07;;;23.50;99.90;;;;;;4968569;28;20468;-69
2021/07/18 06:41:42;;;;;;;7.63;7.07;;;23.50;99.90;;;;;;4972149;28;20515;-69
2021/07/18 06:44:09;;;;;;;6.30;5.90;;;23.50;99.90;;;;;;4973001;28;20476;-69
2021/07/18 06:46:35;;;;;;;6.10;5.80;;;23.60;99.90;;;;;;4976086;28;20455;-69
2021/07/18 06:49:02;;;;;;;7.13;6.43;;;23.30;99.90;;;;;;4977545;28;20470;-70
2021/07/18 06:51:29;;;;;;;6.33;6.13;;;23.30;99.90;;;;;;4976058;28;20519;-71
2021/07/18 06:53:57;;;;;;;6.80;6.40;;;23.30;99.90;;;;;;4974062;28;20493;-69
2021/07/18 06:56:24;;;;;;;4.77;4.57;;;23.90;99.90;;;;;;4974738;28;20530;-69
2021/07/18 06:58:50;;;;;;;4.83;4.60;;;24.50;99.90;;;;;;4973863;28;20475;-69
2021/07/18 07:01:17;;;;;;;5.07;4.80;;;25.20;99.90;;;;;;4973738;28;20619;-67
2021/07/18 07:03:43;;;;;;;4.57;4.37;;;25.10;99.90;;;;;;4973733;28;20486;-68
2021/07/18 07:06:10;;;;;;;5.00;4.90;;;25.30;99.90;;;;;;4974305;28;20501;-69
2021/07/18 07:08:37;;;;;;;3.70;3.60;;;25.60;99.90;;;;;;4973953;28;20476;-68
2021/07/18 07:11:05;;;;;;;4.80;4.50;;;26.00;99.90;;;;;;4974294;28;20625;-68
2021/07/18 07:13:31;;;;;;;5.43;4.20;;;26.10;99.90;;;;;;4974052;28;20488;-68
2021/07/18 07:15:58;;;;;;;3.90;3.60;;;26.20;99.90;;;;;;4975658;28;20867;-68
2021/07/18 07:18:25;;;;;;;3.80;3.70;;;26.40;99.90;;;;;;4983298;28;20533;-69
2021/07/18 07:20:52;;;;;;;3.40;3.30;;;27.00;99.90;;;;;;4975427;28;21148;-69
2021/07/18 07:23:18;;;;;;;3.40;3.30;;;27.20;99.90;;;;;;4975041;28;20574;-69
2021/07/18 07:25:45;;;;;;;3.37;3.27;;;27.70;99.90;;;;;;4975450;28;20573;-69
2021/07/18 07:28:13;;;;;;;3.70;3.50;;;27.70;99.90;;;;;;4967982;28;20469;-69
2021/07/18 07:30:40;;;;;;;2.93;2.80;;;27.60;99.90;;;;;;4975233;28;20552;-68
2021/07/18 07:33:07;;;;;;;2.03;2.00;;;28.00;99.90;;;;;;4975164;28;20581;-69
2021/07/18 07:35:33;;;;;;;3.00;2.90;;;28.10;99.90;;;;;;4974900;28;20467;-69
2021/07/18 07:38:00;;;;;;;2.80;2.60;;;28.10;99.90;;;;;;4974188;28;20522;-69
2021/07/18 07:40:27;;;;;;;2.70;2.60;;;28.30;99.90;;;;;;4974500;28;20486;-69
2021/07/18 07:42:53;;;;;;;3.00;3.00;;;28.60;99.90;;;;;;4973642;28;20962;-69
2021/07/18 07:45:21;;;;;;;2.60;2.50;;;28.90;99.90;;;;;;4974389;28;20466;-69
2021/07/18 07:47:48;;;;;;;3.50;2.70;;;29.10;99.90;;;;;;4973854;28;20989;-69
2021/07/18 07:50:15;;;;;;;3.00;2.77;;;29.20;99.90;;;;;;4974915;28;20466;-66
2021/07/18 07:52:43;;;;;;;2.57;2.50;;;29.00;99.90;;;;;;4974229;28;20827;-68
2021/07/18 07:55:10;;;;;;;2.63;2.47;;;28.30;99.90;;;;;;4974660;28;20974;-68
2021/07/18 07:57:37;;;;;;;2.70;2.50;;;28.30;99.90;;;;;;4972986;28;20870;-68
2021/07/18 08:00:07;;;;;;;2.70;2.57;;;28.70;99.90;;;;;;4973056;28;20920;-69
2021/07/18 08:02:35;;;;;;;2.93;2.73;;;28.70;99.90;;;;;;4973213;28;20475;-69
2021/07/18 08:05:02;;;;;;;2.33;2.23;;;28.50;99.90;;;;;;4972893;28;20474;-69
2021/07/18 08:07:28;;;;;;;2.10;2.10;;;28.60;99.90;;;;;;4972516;28;21012;-69
2021/07/18 08:09:55;;;;;;;1.70;1.70;;;28.70;99.90;;;;;;4973039;28;20518;-69
2021/07/18 08:12:22;;;;;;;2.23;2.13;;;28.60;99.90;;;;;;4971926;28;20533;-69
2021/07/18 08:14:48;;;;;;;2.27;2.17;;;28.80;99.90;;;;;;4971935;28;20474;-69
2021/07/18 08:17:15;;;;;;;1.87;1.87;;;28.90;99.90;;;;;;4970043;28;20483;-69
2021/07/18 08:19:43;;;;;;;2.03;1.93;;;28.80;99.90;;;;;;4972273;28;20490;-69
2021/07/18 08:22:10;;;;;;;2.00;2.00;;;28.80;99.90;;;;;;4972667;28;20491;-67
2021/07/18 08:24:37;;;;;;;1.90;1.80;;;28.80;99.90;;;;;;4968677;28;20590;-66
2021/07/18 08:27:05;;;;;;;1.80;1.73;;;28.60;99.90;;;;;;4971792;28;20545;-67
2021/07/18 08:29:31;;;;;;;2.33;2.20;;;28.50;99.90;;;;;;4971466;28;20950;-66
2021/07/18 08:31:58;;;;;;;2.50;2.33;;;28.60;99.90;;;;;;4972399;28;20569;-67
2021/07/18 08:34:25;;;;;;;2.30;2.30;;;28.50;99.90;;;;;;4972583;28;21014;-67
2021/07/18 08:36:53;;;;;;;1.97;1.87;;;28.30;99.90;;;;;;4972236;28;20491;-67
2021/07/18 08:39:20;;;;;;;2.07;1.90;;;28.50;99.90;;;;;;4972655;28;20462;-67
2021/07/18 08:41:47;;;;;;;2.20;2.20;;;28.40;99.90;;;;;;4971813;28;21114;-67
2021/07/18 08:44:14;;;;;;;1.73;1.73;;;28.00;99.90;;;;;;4972648;28;20462;-67
2021/07/18 08:46:41;;;;;;;2.80;2.63;;;27.80;99.90;;;;;;4971642;28;20549;-67
2021/07/18 08:49:09;;;;;;;2.80;2.70;;;27.50;99.90;;;;;;4971469;28;20462;-67
2021/07/18 08:51:37;;;;;;;3.60;2.30;;;27.20;99.90;;;;;;4972046;28;20600;-67
2021/07/18 08:54:06;;;;;;;2.27;2.17;;;27.20;99.90;;;;;;4971290;28;20464;-67
2021/07/18 08:56:35;;;;;;;3.70;2.93;;;27.20;99.90;;;;;;4972493;28;20463;-68
2021/07/18 08:59:04;;;;;;;2.77;2.77;;;27.00;99.90;;;;;;4971354;28;20489;-67
2021/07/18 09:01:31;;;;;;;2.67;2.50;;;26.90;99.90;;;;;;4971591;28;20487;-65
2021/07/18 09:03:58;;;;;;;3.60;2.70;;;26.50;99.90;;;;;;4970958;28;20500;-66
2021/07/18 09:06:39;;;;;;;3.60;2.83;;;26.20;99.90;;;;;;4969298;28;20817;-65
2021/07/18 09:09:09;;;;;;;2.50;2.40;;;26.10;99.90;;;;;;4969942;28;20992;-66
2021/07/18 09:11:35;;;;;;;2.60;2.40;;;26.00;99.90;;;;;;4971307;28;20853;-66
2021/07/18 09:14:04;;;;;;;2.30;2.30;;;25.70;99.90;;;;;;4971259;28;20471;-69
2021/07/18 09:16:33;;;;;;;2.67;2.57;;;25.60;99.90;;;;;;4972584;28;20495;-68
2021/07/18 09:19:26;;;;;;;2.80;2.50;;;25.60;99.90;;;;;;4971472;28;20484;-69
2021/07/18 09:22:07;;;;;;;2.80;2.80;;;25.50;99.90;;;;;;4967630;28;20499;-69
2021/07/18 09:24:38;;;;;;;2.80;2.70;;;25.30;99.90;;;;;;4973347;28;20460;-68
2021/07/18 09:27:07;;;;;;;2.50;2.40;;;25.40;99.90;;;;;;4972658;28;20476;-68
2021/07/18 09:29:35;;;;;;;2.93;2.73;;;25.40;99.90;;;;;;4972639;28;20468;-68
2021/07/18 09:32:06;;;;;;;3.43;2.57;;;25.40;99.90;;;;;;4973128;28;20534;-69
2021/07/18 09:34:35;;;;;;;5.40;3.40;;;25.60;99.90;;;;;;4972896;28;20460;-68
2021/07/18 09:37:14;;;;;;;2.60;2.50;;;25.60;99.90;;;;;;4967443;28;20468;-69
2021/07/18 09:39:47;;;;;;;2.60;2.50;;;25.70;99.90;;;;;;4969507;28;20526;-69
2021/07/18 09:42:32;;;;;;;2.97;2.80;;;25.80;99.90;;;;;;4972055;28;20488;-69
2021/07/18 09:45:00;;;;;;;2.70;2.50;;;25.50;99.90;;;;;;4972764;28;20924;-69
2021/07/18 09:47:27;;;;;;;2.70;2.70;;;25.50;99.90;;;;;;4972727;28;20468;-69
2021/07/18 09:49:54;;;;;;;2.80;2.60;;;25.50;99.90;;;;;;4972706;28;20464;-69
2021/07/18 09:52:26;;;;;;;3.00;2.90;;;25.40;99.90;;;;;;4971418;28;20499;-68
2021/07/18 09:54:56;;;;;;;2.67;2.50;;;25.30;99.90;;;;;;4973181;28;20474;-69
2021/07/18 09:57:30;;;;;;;4.13;3.17;;;25.30;99.90;;;;;;4972133;28;20944;-68
2021/07/18 09:59:57;;;;;;;2.50;2.47;;;25.30;99.90;;;;;;4972494;28;20490;-68
2021/07/18 10:02:25;;;;;;;2.80;2.70;;;25.30;99.90;;;;;;4972487;28;20496;-69
2021/07/18 10:04:52;;;;;;;3.03;2.93;;;25.30;99.90;;;;;;4972336;28;20812;-69
2021/07/18 10:07:22;;;;;;;2.77;2.67;;;25.30;99.90;;;;;;4973011;28;20495;-69
2021/07/18 10:09:49;;;;;;;3.20;3.03;;;25.30;99.90;;;;;;4973076;28;20550;-68
2021/07/18 10:12:18;;;;;;;3.80;3.60;;;25.50;99.90;;;;;;4971305;28;20472;-68
2021/07/18 10:14:45;;;;;;;4.67;3.43;;;25.60;99.90;;;;;;4972607;28;20470;-68
2021/07/18 10:17:12;;;;;;;3.63;3.37;;;25.60;99.90;;;;;;4971736;28;20571;-69
2021/07/18 10:19:39;;;;;;;3.13;3.03;;;25.60;99.90;;;;;;4954992;28;20496;-68
2021/07/18 10:22:07;;;;;;;3.70;3.27;;;25.60;99.90;;;;;;4968747;28;20533;-69
2021/07/18 10:24:34;;;;;;;2.77;2.70;;;25.40;99.90;;;;;;4976434;28;20463;-68
2021/07/18 10:27:03;;;;;;;3.13;3.03;;;25.40;99.90;;;;;;4976245;28;21174;-68
2021/07/18 10:29:31;;;;;;;3.20;3.10;;;25.50;99.90;;;;;;4976031;28;20879;-68
2021/07/18 10:32:01;;;;;;;3.40;2.80;;;25.40;99.90;;;;;;4975623;28;20815;-69
2021/07/18 10:34:29;;;;;;;2.70;2.60;;;25.50;99.90;;;;;;4976457;28;20472;-68
2021/07/18 10:36:56;;;;;;;2.73;2.63;;;25.70;99.90;;;;;;4976006;28;20519;-69
2021/07/18 10:39:35;;;;;;;2.50;2.37;;;25.90;99.90;;;;;;4975646;28;20983;-68
2021/07/18 10:42:03;;;;;;;2.77;2.67;;;26.00;99.90;;;;;;4975769;28;20523;-69
2021/07/18 10:44:43;;;;;;;2.57;2.57;;;26.20;99.90;;;;;;4975446;28;20530;-68
2021/07/18 10:47:10;;;;;;;2.37;2.17;;;26.20;99.90;;;;;;4975883;28;20460;-69
2021/07/18 10:49:54;;;;;;;2.50;2.40;;;26.20;99.90;;;;;;4976150;28;20506;-68
2021/07/18 10:52:24;;;;;;;3.00;2.63;;;26.00;99.90;;;;;;4975657;28;20479;-68
2021/07/18 10:54:51;;;;;;;2.60;2.50;;;26.00;99.90;;;;;;4975568;28;20562;-70
2021/07/18 10:57:23;;;;;;;2.90;2.70;;;25.90;99.90;;;;;;4974612;28;20517;-68
2021/07/18 10:59:51;;;;;;;2.60;2.50;;;25.80;99.90;;;;;;4975353;28;20487;-68
2021/07/18 11:02:20;;;;;;;3.70;2.87;;;25.70;99.90;;;;;;4975766;28;20577;-68
2021/07/18 11:04:48;;;;;;;2.47;2.37;;;25.60;99.90;;;;;;4975812;28;20547;-68
2021/07/18 11:07:36;;;;;;;2.80;1.93;;;25.50;99.90;;;;;;4969261;28;20467;-69
2021/07/18 11:10:20;;;;;;;2.60;2.40;;;25.50;99.90;;;;;;4975177;28;20460;-70
2021/07/18 11:12:48;;;;;;;2.00;2.00;;;25.60;99.90;;;;;;4974832;28;20510;-69
2021/07/18 11:15:35;;;;;;;2.07;1.90;;;25.60;99.90;;;;;;4975312;28;20507;-69
2021/07/18 11:18:07;;;;;;;2.43;1.80;;;25.70;99.90;;;;;;4975389;28;20515;-69
2021/07/18 11:21:00;;;;;;;2.10;1.93;;;25.80;99.90;;;;;;4976803;28;20530;-68
2021/07/18 11:23:33;;;;;;;3.00;2.57;;;26.00;99.90;;;;;;4973581;28;20494;-69
2021/07/18 11:26:12;;;;;;;2.00;1.73;;;26.10;99.90;;;;;;4974649;28;20471;-69
2021/07/18 11:28:50;;;;;;;1.40;1.30;;;26.10;99.90;;;;;;4974579;28;20468;-70
2021/07/18 11:31:24;;;;;;;1.80;1.70;;;26.00;99.90;;;;;;4974735;28;20488;-70
2021/07/18 11:33:59;;;;;;;4.43;3.00;;;26.00;99.90;;;;;;4974933;28;20460;-71
2021/07/18 11:36:56;;;;;;;2.23;1.90;;;26.00;99.90;;;;;;4975504;28;20474;-70
2021/07/18 11:39:26;;;;;;;1.90;1.90;;;26.00;99.90;;;;;;4974895;28;20517;-71
2021/07/18 11:41:55;;;;;;;1.70;1.70;;;26.10;99.90;;;;;;4975876;28;20524;-70
2021/07/18 11:44:30;;;;;;;3.27;2.00;;;26.30;99.90;;;;;;4974101;28;20464;-70
2021/07/18 11:47:03;;;;;;;2.10;2.00;;;26.60;99.90;;;;;;4974874;28;20998;-70
2021/07/18 11:49:33;;;;;;;1.43;1.40;;;26.70;99.90;;;;;;4974905;28;20921;-70
2021/07/18 11:52:00;;;;;;;1.93;1.63;;;26.70;99.90;;;;;;4974841;28;20964;-70
2021/07/18 11:54:27;;;;;;;2.10;1.93;;;26.80;99.90;;;;;;4974746;28;20471;-69
2021/07/18 11:56:54;;;;;;;2.00;1.97;;;26.90;99.90;;;;;;4960908;28;20466;-71
2021/07/18 11:59:23;;;;;;;1.67;1.57;;;26.90;99.90;;;;;;4955095;29;20564;-70
2021/07/18 12:01:51;;;;;;;1.67;1.67;;;26.80;99.90;;;;;;4973506;28;20895;-71
2021/07/18 12:04:23;;;;;;;1.93;1.83;;;26.40;99.90;;;;;;4975722;28;20542;-69
2021/07/18 12:06:52;;;;;;;1.83;1.60;;;26.20;99.90;;;;;;4975125;28;20468;-70
2021/07/18 12:09:20;;;;;;;2.73;1.60;;;26.10;99.90;;;;;;4974792;28;20464;-70
2021/07/18 12:11:49;;;;;;;1.60;1.60;;;26.10;99.90;;;;;;4974489;28;20549;-69
2021/07/18 12:14:16;;;;;;;1.67;1.53;;;26.10;99.90;;;;;;4975365;28;20570;-69
2021/07/18 12:16:44;;;;;;;2.10;1.90;;;26.30;99.90;;;;;;4974226;28;20460;-68
2021/07/18 12:19:12;;;;;;;1.73;1.67;;;26.50;99.90;;;;;;4974292;28;20591;-69
2021/07/18 12:21:42;;;;;;;3.57;1.97;;;26.30;99.90;;;;;;4974216;28;20998;-69
2021/07/18 12:24:14;;;;;;;1.43;1.43;;;26.20;99.90;;;;;;4973993;28;20464;-68
2021/07/18 12:26:42;;;;;;;1.23;1.13;;;26.10;99.90;;;;;;4973615;28;20938;-69
2021/07/18 12:29:11;;;;;;;1.93;1.83;;;26.20;99.90;;;;;;4954564;29;20880;-69
2021/07/18 12:31:39;;;;;;;3.13;2.23;;;26.30;99.90;;;;;;4954389;28;20531;-68
2021/07/18 12:34:06;;;;;;;1.67;1.67;;;26.50;99.90;;;;;;4965094;28;20498;-69
2021/07/18 12:36:33;;;;;;;1.33;1.33;;;26.70;99.90;;;;;;4973865;28;20571;-70
2021/07/18 12:41:57;;;;;;;2.23;2.13;;;26.90;99.90;;;;;;5088660;27;20543;-69
2021/07/18 12:44:25;;;;;;;3.13;1.37;;;27.00;99.90;;;;;;5088338;28;20458;-69
2021/07/18 12:47:32;;;;;;;2.00;1.90;;;27.20;99.90;;;;;;5088380;28;20465;-69
2021/07/18 12:50:10;;;;;;;2.40;1.40;;;27.20;99.90;;;;;;5089645;28;20869;-69
2021/07/18 12:52:39;;;;;;;1.70;1.60;;;27.40;99.90;;;;;;5088874;28;20455;-69
2021/07/18 12:55:13;;;;;;;2.27;1.30;;;27.40;99.90;;;;;;5089303;28;20455;-70
2021/07/18 12:57:41;;;;;;;4.67;1.50;;;27.10;99.90;;;;;;5088501;28;20504;-69
2021/07/18 13:00:10;;;;;;;1.47;1.37;;;26.80;99.90;;;;;;5088166;28;20575;-70
2021/07/18 13:02:37;;;;;;;1.80;1.30;;;26.70;99.90;;;;;;5073048;28;20466;-70
2021/07/18 13:05:04;;;;;;;1.57;1.47;;;26.80;99.90;;;;;;5068054;28;20464;-70
2021/07/18 13:07:31;;;;;;;1.60;1.40;;;26.80;99.90;;;;;;5068658;28;20466;-69
2021/07/18 13:10:08;;;;;;;2.57;1.50;;;26.60;99.90;;;;;;5068166;28;20822;-70
2021/07/18 13:12:35;;;;;;;1.40;1.30;;;26.60;99.90;;;;;;5067842;28;20497;-70
2021/07/18 13:15:14;;;;;;;1.53;1.50;;;26.70;99.90;;;;;;5067970;28;20467;-69
2021/07/18 13:17:50;;;;;;;1.90;1.40;;;26.60;99.90;;;;;;5068076;28;20546;-70
2021/07/18 13:20:19;;;;;;;1.93;1.70;;;26.50;99.90;;;;;;5068294;28;21079;-69
2021/07/18 13:22:46;;;;;;;2.77;2.03;;;26.50;99.90;;;;;;5067877;28;20485;-68
2021/07/18 13:25:21;;;;;;;4.63;1.90;;;26.60;99.90;;;;;;5068335;28;20468;-70
2021/07/18 13:27:48;;;;;;;3.10;1.67;;;26.80;99.90;;;;;;5067968;28;20471;-69
2021/07/18 13:30:20;;;;;;;1.60;1.50;;;26.90;99.90;;;;;;5067352;28;20456;-69
2021/07/18 13:32:47;;;;;;;1.50;1.50;;;26.90;99.90;;;;;;5067751;28;20463;-70
2021/07/18 13:35:17;;;;;;;1.30;1.30;;;26.80;99.90;;;;;;5067804;28;20474;-69
2021/07/18 13:37:48;;;;;;;2.67;2.27;;;26.80;99.90;;;;;;5067788;28;20527;-69
2021/07/18 13:40:29;;;;;;;2.53;1.73;;;26.60;99.90;;;;;;5067435;28;21029;-69
2021/07/18 13:43:12;;;;;;;1.40;1.30;;;26.60;99.90;;;;;;5067411;28;20554;-70
2021/07/18 13:45:42;;;;;;;1.83;1.70;;;26.90;99.90;;;;;;5066868;28;20781;-70
2021/07/18 13:48:11;;;;;;;2.77;2.00;;;27.10;99.90;;;;;;5067766;28;20467;-69
2021/07/18 13:50:39;;;;;;;1.20;1.20;;;27.00;99.90;;;;;;5067355;28;21089;-69
2021/07/18 13:53:05;;;;;;;3.50;1.70;;;26.90;99.90;;;;;;5054653;28;20546;-69
2021/07/18 13:55:33;;;;;;;2.77;1.67;;;26.70;99.90;;;;;;5054383;28;20460;-70
2021/07/18 13:58:00;;;;;;;1.60;1.50;;;26.50;99.90;;;;;;5053893;28;20460;-70
2021/07/18 14:00:27;;;;;;;1.73;1.40;;;26.60;99.90;;;;;;5053371;28;20488;-70
2021/07/18 14:02:55;;;;;;;1.70;1.60;;;26.60;99.90;;;;;;5054183;28;20533;-70
2021/07/18 14:05:22;;;;;;;3.03;1.40;;;26.60;99.90;;;;;;5054235;28;20471;-70
2021/07/18 14:07:49;;;;;;;1.50;1.40;;;26.60;99.90;;;;;;5054132;28;20604;-70
2021/07/18 14:10:16;;;;;;;4.93;1.53;;;26.60;99.90;;;;;;5053980;28;20970;-71
2021/07/18 14:12:43;;;;;;;1.83;1.83;;;26.60;99.90;;;;;;5053566;28;20534;-70
2021/07/18 14:15:12;;;;;;;2.50;1.50;;;26.60;99.90;;;;;;5053388;28;20456;-71
2021/07/18 14:17:39;;;;;;;1.47;1.37;;;26.50;99.90;;;;;;5053934;28;20460;-70
2021/07/18 14:20:09;;;;;;;1.67;1.40;;;26.50;99.90;;;;;;5053753;28;20472;-70
2021/07/18 14:22:36;;;;;;;2.20;1.40;;;26.60;99.90;;;;;;5053476;28;20460;-70
2021/07/18 14:25:05;;;;;;;2.77;1.40;;;26.90;99.90;;;;;;5053762;28;20563;-70
2021/07/18 14:27:32;;;;;;;1.13;1.07;;;27.20;99.90;;;;;;5052999;28;20464;-70
2021/07/18 14:29:58;;;;;;;1.50;1.40;;;27.30;99.90;;;;;;5053543;28;20537;-70
2021/07/18 14:32:25;;;;;;;1.50;1.40;;;27.40;99.90;;;;;;5053508;28;20476;-70
2021/07/18 14:34:51;;;;;;;2.10;1.37;;;27.40;99.90;;;;;;5053669;28;20464;-70
2021/07/18 14:37:19;;;;;;;1.17;1.10;;;27.30;99.90;;;;;;5053495;28;20952;-71
2021/07/18 14:39:46;;;;;;;2.40;1.70;;;27.30;99.90;;;;;;5053416;28;20545;-71
2021/07/18 14:42:13;;;;;;;1.13;1.13;;;27.20;99.90;;;;;;5052617;28;20549;-71
2021/07/18 14:44:40;;;;;;;1.30;1.30;;;27.30;99.90;;;;;;5052831;28;20853;-71
2021/07/18 14:47:07;;;;;;;1.77;1.67;;;27.40;99.90;;;;;;5053391;28;20533;-70
2021/07/18 14:49:34;;;;;;;1.70;1.60;;;27.30;99.90;;;;;;5053436;28;20507;-71
2021/07/18 14:52:02;;;;;;;2.53;1.63;;;27.30;99.90;;;;;;5053171;28;20545;-69
2021/07/18 14:54:30;;;;;;;1.13;1.13;;;27.20;99.90;;;;;;5052946;28;20518;-70
2021/07/18 14:56:57;;;;;;;1.70;1.60;;;27.20;99.90;;;;;;5053036;28;20460;-69
2021/07/18 14:59:24;;;;;;;6.10;1.40;;;27.20;99.90;;;;;;5052877;28;20476;-69
2021/07/18 15:01:50;;;;;;;2.10;1.53;;;27.30;99.90;;;;;;5052907;28;20557;-70
2021/07/18 15:04:17;;;;;;;1.50;1.37;;;27.40;99.90;;;;;;5051728;28;20460;-70
2021/07/18 15:06:44;;;;;;;1.00;1.00;;;27.40;99.90;;;;;;5052828;28;20467;-70
2021/07/18 15:09:10;;;;;;;1.50;1.40;;;27.40;99.90;;;;;;5052654;28;20970;-69
2021/07/18 15:11:39;;;;;;;2.50;1.13;;;27.40;99.90;;;;;;5053123;28;20535;-67
2021/07/18 15:14:05;;;;;;;1.80;1.40;;;27.20;99.90;;;;;;5052631;28;20517;-69
2021/07/18 15:16:33;;;;;;;1.30;1.30;;;26.90;99.90;;;;;;5052615;28;20514;-68
2021/07/18 15:18:59;;;;;;;1.67;1.63;;;26.80;99.90;;;;;;5052646;28;20467;-69
2021/07/18 15:21:27;;;;;;;2.20;1.87;;;26.70;99.90;;;;;;5052080;28;20492;-68
2021/07/18 15:23:54;;;;;;;1.50;1.07;;;26.80;99.90;;;;;;5052786;28;20456;-69
2021/07/18 15:26:21;;;;;;;2.93;1.33;;;26.90;99.90;;;;;;5052890;28;20498;-68
2021/07/18 15:28:49;;;;;;;1.53;1.43;;;26.80;99.90;;;;;;5051866;28;20464;-69
2021/07/18 15:31:16;;;;;;;1.40;1.30;;;26.60;99.90;;;;;;5051838;28;20480;-68
2021/07/18 15:33:43;;;;;;;1.77;1.73;;;26.70;99.90;;;;;;5051945;28;20501;-68
2021/07/18 15:36:10;;;;;;;1.30;1.30;;;26.80;99.90;;;;;;5052052;28;20472;-69
2021/07/18 15:38:38;;;;;;;1.87;1.77;;;26.80;99.90;;;;;;5052228;28;20464;-68
2021/07/18 15:41:05;;;;;;;1.87;1.87;;;26.60;99.90;;;;;;5051992;28;20554;-68
2021/07/18 15:43:32;;;;;;;2.57;2.37;;;26.20;99.90;;;;;;5051859;28;20525;-67
2021/07/18 15:46:00;;;;;;;1.57;1.47;;;26.10;99.90;;;;;;5051704;28;20562;-67
2021/07/18 15:48:26;;;;;;;2.00;1.90;;;26.10;99.90;;;;;;5052094;28;20465;-68
2021/07/18 15:50:53;;;;;;;2.30;2.20;;;26.10;99.90;;;;;;5051601;28;20476;-67
2021/07/18 15:53:20;;;;;;;2.30;2.30;;;26.10;99.90;;;;;;5051922;28;20479;-68
2021/07/18 15:55:47;;;;;;;2.87;2.27;;;26.20;99.90;;;;;;5052067;28;20465;-68
2021/07/18 15:58:13;;;;;;;2.43;2.33;;;26.10;99.90;;;;;;5051515;28;20464;-68
2021/07/18 16:00:41;;;;;;;2.57;2.47;;;26.10;99.90;;;;;;5051158;28;21077;-68
2021/07/18 16:03:09;;;;;;;2.70;2.50;;;26.10;99.90;;;;;;5051370;28;20460;-68
2021/07/18 16:05:35;;;;;;;2.47;2.40;;;26.10;99.90;;;;;;5051869;28;20452;-68
2021/07/18 16:08:02;;;;;;;2.43;2.23;;;26.00;99.90;;;;;;5051889;28;20560;-68
2021/07/18 16:10:29;;;;;;;2.70;2.50;;;26.00;99.90;;;;;;5051828;28;20531;-68
2021/07/18 16:12:56;;;;;;;2.57;2.00;;;25.80;99.90;;;;;;5051308;28;20464;-68
2021/07/18 16:15:22;;;;;;;3.07;2.30;;;25.80;99.90;;;;;;5051270;28;20492;-67
2021/07/18 16:17:49;;;;;;;2.57;2.47;;;25.70;99.90;;;;;;5051494;28;20464;-68
2021/07/18 16:20:17;;;;;;;3.20;2.90;;;25.70;99.90;;;;;;5051178;28;20529;-68
2021/07/18 16:22:44;;;;;;;2.00;2.00;;;25.70;99.90;;;;;;5051426;28;20516;-67
2021/07/18 16:25:11;;;;;;;2.60;2.47;;;25.60;99.90;;;;;;5051532;28;20921;-68
2021/07/18 16:27:38;;;;;;;2.83;2.60;;;25.70;99.90;;;;;;5051060;28;20460;-68
2021/07/18 16:30:06;;;;;;;2.70;2.60;;;25.70;99.90;;;;;;5051053;28;20464;-69
2021/07/18 16:32:33;;;;;;;2.30;2.20;;;25.50;99.90;;;;;;5051354;28;20452;-69
2021/07/18 16:35:00;;;;;;;2.37;2.20;;;25.50;99.90;;;;;;5051152;28;20468;-70
2021/07/18 16:37:28;;;;;;;2.70;2.50;;;25.30;99.90;;;;;;5051499;28;20817;-68
2021/07/18 16:39:58;;;;;;;3.17;2.97;;;25.10;99.90;;;;;;5051485;28;20472;-69
2021/07/18 16:42:25;;;;;;;2.90;2.80;;;25.10;99.90;;;;;;5050708;28;20488;-69
2021/07/18 16:44:52;;;;;;;2.50;2.40;;;25.00;99.90;;;;;;5050947;28;20924;-69
2021/07/18 16:47:19;;;;;;;2.50;2.30;;;24.90;99.90;;;;;;5051122;28;20476;-69
2021/07/18 16:49:46;;;;;;;2.40;2.20;;;24.80;99.90;;;;;;5068835;28;20455;-69
2021/07/18 16:52:12;;;;;;;2.17;2.10;;;24.80;99.90;;;;;;5071195;28;20527;-69
2021/07/18 16:54:40;;;;;;;2.30;2.30;;;24.70;99.90;;;;;;5071334;28;20528;-69
2021/07/18 16:57:07;;;;;;;2.90;2.53;;;24.60;99.90;;;;;;5070850;28;20482;-69